Terminal Aerodrome Forecast
Issued by NWS

Home | Current Version | Previous Version | Text Only | Print | Product List | Glossary On
Versions: 1 2 3 4 5 6 7 8 9 10 11 12 13 14 15
000
FTUS46 KMTR 271700
TAFOAK
TAF
KOAK 271734Z 2718/2824 31005KT P6SM SCT009
     FM272000 28010KT P6SM FEW010
     FM272200 28015G22KT P6SM FEW012
      TEMPO 2800/2803 BKN010
     FM280300 28012KT P6SM OVC008
     FM281200 28006KT P6SM OVC007=

USA.gov is the U.S. government's official web portal to all federal, state and local government web resources and services.